Allport, Pennsylvania
Current Conditions -  °F | °C
As of 9:54 PM on Friday 21 Nov 2014 (Local Time) from KFIG Reporting Station
Clear Clear  
Wind Chill: -11°   Ceiling: Unl
Heat Index: -11°   Visibility: 10mi
Dew Point: -13°   Wind: 0mph
Humidity: 81%   Direction: NA
Pressure: 30.42"   Gusts: NA
Location:  40.96°N, 78.2°W
Report Text: KFIG 220254Z AUTO 00000KT 10SM CLR M11/M13 A3042 RMK AO2 SLP330 T11061133 56006
Loading
Personal Weather Stations






























Interactive Weather Map New forecast layout! Learn more

10-Day Weather Forecast

Advertisements
Track Severe Weather on mobile